Time;durP1;ratioP1;P1;durP2;ratioP2;P2;SDS_P1;SDS_P2;PMS_P1;PMS_P2;Temp;Humidity;BMP_temperature;BMP_pressure;BME280_temperature;BME280_humidity;BME280_pressure;Samples;Min_cycle;Max_cycle;Signal;HPM_P1;HPM_P2
2023/08/02 00:01:47;;;;;;;3.80;3.40;;;;;;;26.02;60.68;100829.25;106933;1269;25341;-51
2023/08/02 00:04:14;;;;;;;3.80;3.40;;;;;;;26.01;60.64;100829.75;107231;1260;22538;-52
2023/08/02 00:06:42;;;;;;;4.30;3.90;;;;;;;25.99;60.86;100826.70;107233;1261;25414;-51
2023/08/02 00:09:09;;;;;;;3.90;3.60;;;;;;;25.98;60.92;100824.84;107145;1263;25408;-51
2023/08/02 00:11:36;;;;;;;4.00;3.30;;;;;;;25.97;60.91;100825.59;107165;1262;25328;-52
2023/08/02 00:14:03;;;;;;;3.40;3.10;;;;;;;25.96;61.14;100825.89;107130;1263;25417;-51
2023/08/02 00:16:30;;;;;;;4.50;3.20;;;;;;;25.95;61.20;100825.43;107251;1260;25400;-51
2023/08/02 00:18:58;;;;;;;3.60;3.30;;;;;;;25.94;61.30;100815.55;107157;1260;22579;-52
2023/08/02 00:21:24;;;;;;;3.30;3.00;;;;;;;25.94;61.45;100820.02;107112;1251;25414;-52
2023/08/02 00:23:51;;;;;;;3.30;3.00;;;;;;;25.94;61.57;100818.05;106990;1266;25337;-51
2023/08/02 00:26:18;;;;;;;4.10;2.80;;;;;;;25.94;61.66;100818.80;107161;1263;25417;-52
2023/08/02 00:28:45;;;;;;;3.10;2.90;;;;;;;25.93;61.59;100819.21;107100;1260;25328;-52
2023/08/02 00:31:13;;;;;;;3.80;3.20;;;;;;;25.93;61.70;100818.29;107152;1257;22533;-51
2023/08/02 00:33:40;;;;;;;3.30;3.00;;;;;;;25.93;61.69;100819.58;107234;1250;25382;-51
2023/08/02 00:36:08;;;;;;;3.20;3.00;;;;;;;25.93;61.82;100821.66;107095;1263;25407;-52
2023/08/02 00:38:35;;;;;;;4.10;3.80;;;;;;;25.93;62.19;100820.65;106857;1263;25366;-50
2023/08/02 00:41:04;;;;;;;3.50;3.20;;;;;;;25.92;62.21;100822.64;106967;1262;22516;-51
2023/08/02 00:43:47;;;;;;;3.50;3.20;;;;;;;25.92;62.39;100827.51;106928;1256;24205;-51
2023/08/02 00:46:16;;;;;;;3.80;3.10;;;;;;;25.92;62.40;100830.13;107026;1260;25482;-52
2023/08/02 00:48:43;;;;;;;3.90;3.50;;;;;;;25.92;62.30;100831.56;106927;1269;25393;-52
2023/08/02 00:51:15;;;;;;;3.50;3.20;;;;;;;25.91;62.42;100832.34;106715;1263;25488;-51
2023/08/02 00:53:43;;;;;;;3.20;3.00;;;;;;;25.92;62.40;100834.56;106829;1266;25359;-51
2023/08/02 00:56:10;;;;;;;3.30;3.00;;;;;;;25.91;62.47;100835.89;106977;1262;22524;-52
2023/08/02 00:58:37;;;;;;;4.40;3.60;;;;;;;25.90;62.51;100827.28;106854;1263;22523;-51
2023/08/02 01:01:07;;;;;;;3.10;2.90;;;;;;;25.89;62.61;100826.45;107152;1258;25491;-52
2023/08/02 01:03:40;;;;;;;3.40;3.10;;;;;;;25.90;62.62;100821.64;107096;1266;25341;-52
2023/08/02 01:06:29;;;;;;;3.40;3.10;;;;;;;25.89;62.72;100819.17;107106;1263;25494;-52
2023/08/02 01:09:08;;;;;;;4.10;3.20;;;;;;;25.89;62.94;100813.17;107206;1266;22534;-51
2023/08/02 01:11:40;;;;;;;3.30;3.10;;;;;;;25.88;62.96;100809.70;107168;1263;22532;-51
2023/08/02 01:14:07;;;;;;;4.70;3.30;;;;;;;25.88;63.00;100807.03;107159;1263;25385;-51
2023/08/02 01:16:36;;;;;;;4.50;3.30;;;;;;;25.84;63.07;100806.22;106969;1263;25365;-51
2023/08/02 01:19:09;;;;;;;4.90;3.40;;;;;;;25.82;63.15;100802.98;107190;1263;25369;-51
2023/08/02 01:21:37;;;;;;;5.20;3.60;;;;;;;25.86;63.24;100803.29;107141;1250;25306;-52
2023/08/02 01:24:05;;;;;;;3.40;3.10;;;;;;;25.86;63.29;100796.19;106897;1263;22538;-52
2023/08/02 01:26:32;;;;;;;5.70;3.30;;;;;;;25.86;63.34;100797.42;106758;1267;22653;-51
2023/08/02 01:29:02;;;;;;;4.00;3.70;;;;;;;25.86;63.67;100798.68;106960;1266;25484;-51
2023/08/02 01:31:29;;;;;;;3.90;3.60;;;;;;;25.85;63.87;100800.66;106886;1260;22520;-51
2023/08/02 01:33:56;;;;;;;3.90;3.40;;;;;;;25.84;63.85;100801.22;106978;1253;25356;-51
2023/08/02 01:36:23;;;;;;;3.50;3.20;;;;;;;25.84;64.23;100800.05;106466;1273;25414;-51
2023/08/02 01:38:51;;;;;;;3.40;3.20;;;;;;;25.83;64.26;100796.34;107068;1263;25341;-52
2023/08/02 01:41:18;;;;;;;3.70;3.40;;;;;;;25.83;64.60;100801.73;107204;1260;25369;-51
2023/08/02 01:43:45;;;;;;;5.80;3.40;;;;;;;25.82;64.82;100801.58;106945;1263;25414;-51
2023/08/02 01:46:12;;;;;;;4.00;3.40;;;;;;;25.83;65.10;100803.52;107239;1253;22523;-51
2023/08/02 01:48:39;;;;;;;3.90;3.50;;;;;;;25.82;65.28;100805.48;107169;1263;25405;-52
2023/08/02 01:51:06;;;;;;;5.40;3.60;;;;;;;25.83;65.40;100809.33;107170;1261;25350;-52
2023/08/02 01:53:33;;;;;;;4.10;3.80;;;;;;;25.83;65.62;100809.84;107109;1263;25365;-52
2023/08/02 01:56:00;;;;;;;6.00;3.70;;;;;;;25.84;65.77;100810.55;107120;1262;25414;-52
2023/08/02 01:58:29;;;;;;;3.90;3.60;;;;;;;25.84;66.00;100813.15;107160;1254;25366;-52
2023/08/02 02:00:56;;;;;;;3.90;3.60;;;;;;;25.84;66.09;100813.34;106918;1256;22640;-52
2023/08/02 02:03:23;;;;;;;4.00;3.60;;;;;;;25.84;66.33;100809.76;106813;1266;25469;-52
2023/08/02 02:05:54;;;;;;;4.40;3.80;;;;;;;25.86;66.39;100812.16;106755;1269;22537;-52
2023/08/02 02:08:21;;;;;;;4.10;3.80;;;;;;;25.86;66.69;100818.52;106868;1272;25337;-51
2023/08/02 02:10:53;;;;;;;3.70;3.30;;;;;;;25.88;66.75;100818.79;106891;1260;25802;-52
2023/08/02 02:13:21;;;;;;;4.30;4.00;;;;;;;25.88;66.96;100821.81;106898;1266;22529;-52
2023/08/02 02:15:48;;;;;;;4.00;3.70;;;;;;;25.88;67.16;100822.33;106981;1266;25495;-53
2023/08/02 02:18:15;;;;;;;3.80;3.50;;;;;;;25.89;67.34;100823.50;106838;1264;25334;-52
2023/08/02 02:20:42;;;;;;;4.00;3.70;;;;;;;25.89;67.25;100826.09;106856;1267;25372;-51
2023/08/02 02:23:09;;;;;;;4.40;3.70;;;;;;;25.89;67.11;100828.58;106855;1266;25335;-52
2023/08/02 02:25:36;;;;;;;3.80;3.50;;;;;;;25.90;67.22;100827.50;106629;1260;25352;-52
2023/08/02 02:28:03;;;;;;;4.50;4.10;;;;;;;25.89;67.40;100830.35;106585;1263;24365;-52
2023/08/02 02:30:30;;;;;;;4.10;3.70;;;;;;;25.91;67.34;100833.98;106594;1267;25501;-52
2023/08/02 02:32:57;;;;;;;4.30;4.00;;;;;;;25.91;67.34;100833.97;106693;1263;25369;-53
2023/08/02 02:35:26;;;;;;;4.50;3.70;;;;;;;25.91;67.43;100830.92;106922;1263;25410;-51
2023/08/02 02:37:53;;;;;;;3.60;3.30;;;;;;;25.92;67.44;100834.79;106976;1266;25366;-51
2023/08/02 02:40:20;;;;;;;3.80;3.40;;;;;;;25.92;67.53;100836.54;107202;1263;25414;-51
2023/08/02 02:42:47;;;;;;;3.80;3.50;;;;;;;25.92;67.39;100835.43;107100;1263;25403;-52
2023/08/02 02:45:14;;;;;;;3.70;3.40;;;;;;;25.92;67.53;100833.48;106860;1267;25475;-52
2023/08/02 02:47:42;;;;;;;4.00;3.50;;;;;;;25.93;67.43;100832.88;106757;1260;22549;-52
2023/08/02 02:50:09;;;;;;;3.90;3.60;;;;;;;25.93;67.58;100838.19;106879;1266;22994;-52
2023/08/02 02:52:37;;;;;;;4.20;3.80;;;;;;;25.95;67.49;100833.81;106946;1256;24386;-52
2023/08/02 02:55:04;;;;;;;4.10;3.70;;;;;;;25.95;67.48;100838.05;106994;1266;22526;-52
2023/08/02 02:57:31;;;;;;;4.20;3.80;;;;;;;25.96;67.57;100841.19;106903;1254;26500;-52
2023/08/02 02:59:58;;;;;;;3.50;3.10;;;;;;;25.96;67.52;100845.57;106759;1261;25955;-52
2023/08/02 03:02:25;;;;;;;3.40;2.80;;;;;;;25.96;67.29;100838.45;106922;1265;24355;-52
2023/08/02 03:04:52;;;;;;;3.00;2.80;;;;;;;25.97;67.35;100837.86;106876;1266;25427;-52
2023/08/02 03:07:19;;;;;;;4.10;3.70;;;;;;;25.99;67.24;100842.20;106853;1259;25468;-52
2023/08/02 03:09:46;;;;;;;3.80;3.50;;;;;;;26.00;67.25;100843.52;106851;1253;25372;-52
2023/08/02 03:12:13;;;;;;;3.60;3.30;;;;;;;26.00;67.23;100847.39;106865;1261;25395;-52
2023/08/02 03:14:40;;;;;;;3.00;2.80;;;;;;;26.01;67.09;100849.80;106963;1267;25494;-52
2023/08/02 03:17:07;;;;;;;3.30;3.00;;;;;;;26.03;66.95;100849.67;106883;1267;25364;-52
2023/08/02 03:19:34;;;;;;;3.00;2.80;;;;;;;26.04;66.92;100849.22;106811;1266;25415;-51
2023/08/02 03:22:01;;;;;;;3.10;2.90;;;;;;;26.05;66.84;100851.98;107136;1267;25341;-51
2023/08/02 03:24:29;;;;;;;3.00;2.80;;;;;;;26.06;66.79;100853.48;107206;1263;25365;-51
2023/08/02 03:26:56;;;;;;;3.30;3.00;;;;;;;26.07;66.78;100851.99;107156;1263;25487;-52
2023/08/02 03:29:22;;;;;;;3.80;2.80;;;;;;;26.08;66.71;100850.99;107181;1260;23376;-52
2023/08/02 03:31:50;;;;;;;2.90;2.70;;;;;;;26.10;66.59;100843.01;107138;1257;22506;-52
2023/08/02 03:34:16;;;;;;;3.20;2.70;;;;;;;26.12;66.50;100842.71;107145;1263;25362;-51
2023/08/02 03:36:43;;;;;;;3.20;2.90;;;;;;;26.14;66.37;100840.91;107162;1260;25365;-52
2023/08/02 03:39:11;;;;;;;2.70;2.50;;;;;;;26.16;66.40;100841.05;107216;1253;25433;-52
2023/08/02 03:41:37;;;;;;;3.20;2.80;;;;;;;26.18;66.24;100846.38;107109;1262;25391;-52
2023/08/02 03:44:04;;;;;;;3.30;3.00;;;;;;;26.22;66.24;100847.80;107093;1263;25487;-52
2023/08/02 03:46:31;;;;;;;3.60;2.60;;;;;;;26.30;66.71;100848.95;107149;1263;25372;-52
2023/08/02 03:49:01;;;;;;;3.10;2.90;;;;;;;26.40;67.06;100848.25;107226;1256;25350;-52
2023/08/02 03:51:28;;;;;;;3.20;2.20;;;;;;;26.51;66.88;100842.45;106943;1251;25405;-52
2023/08/02 03:53:55;;;;;;;3.00;2.70;;;;;;;26.61;66.55;100843.33;107148;1266;25487;-51
2023/08/02 03:56:22;;;;;;;3.10;2.60;;;;;;;26.74;66.46;100840.27;107143;1254;22523;-51
2023/08/02 03:58:49;;;;;;;3.20;2.90;;;;;;;26.92;66.05;100841.37;107147;1260;25570;-50
2023/08/02 04:01:16;;;;;;;2.70;2.50;;;;;;;27.07;65.41;100840.11;107221;1255;25366;-51
2023/08/02 04:03:43;;;;;;;3.10;2.90;;;;;;;27.17;64.88;100838.53;107165;1260;25356;-54
2023/08/02 04:06:10;;;;;;;2.60;2.40;;;;;;;27.23;64.54;100841.59;107108;1257;25477;-52
2023/08/02 04:08:37;;;;;;;3.30;2.70;;;;;;;27.24;64.18;100837.53;107149;1263;25331;-51
2023/08/02 04:11:04;;;;;;;3.90;2.50;;;;;;;27.24;64.05;100839.33;107224;1251;25359;-51
2023/08/02 04:13:32;;;;;;;4.80;3.20;;;;;;;27.22;64.15;100839.85;107145;1261;25338;-51
2023/08/02 04:15:59;;;;;;;2.90;2.60;;;;;;;27.20;64.07;100840.71;107230;1263;24205;-52
2023/08/02 04:18:26;;;;;;;3.00;2.80;;;;;;;27.19;64.09;100839.44;106876;1269;23859;-52
2023/08/02 04:20:53;;;;;;;3.30;3.00;;;;;;;27.17;64.26;100841.04;106989;1254;25458;-52
2023/08/02 04:23:20;;;;;;;3.30;2.60;;;;;;;27.15;64.29;100837.15;107128;1255;25420;-51
2023/08/02 04:25:47;;;;;;;3.40;3.10;;;;;;;27.13;64.47;100838.87;107033;1266;25359;-51
2023/08/02 04:28:14;;;;;;;3.30;3.00;;;;;;;27.12;64.42;100830.05;107087;1257;25416;-51
2023/08/02 04:30:41;;;;;;;5.00;2.70;;;;;;;27.11;64.44;100827.70;107233;1263;25344;-52
2023/08/02 04:33:08;;;;;;;3.00;2.80;;;;;;;27.10;64.62;100829.40;107107;1263;25337;-51
2023/08/02 04:35:35;;;;;;;2.70;2.40;;;;;;;27.10;64.59;100831.86;107138;1263;25799;-51
2023/08/02 04:38:02;;;;;;;3.40;2.60;;;;;;;27.11;64.81;100834.09;107282;1260;25353;-51
2023/08/02 04:40:29;;;;;;;4.20;3.80;;;;;;;27.12;64.71;100834.70;106976;1256;25361;-51
2023/08/02 04:42:56;;;;;;;3.40;2.80;;;;;;;27.13;64.68;100835.71;106769;1266;25509;-51
2023/08/02 04:45:23;;;;;;;3.90;3.50;;;;;;;27.15;64.64;100834.31;107094;1253;22668;-51
2023/08/02 04:47:50;;;;;;;2.80;2.60;;;;;;;27.15;64.61;100831.92;107065;1263;25346;-52
2023/08/02 04:50:17;;;;;;;7.60;2.70;;;;;;;27.17;64.71;100835.13;107095;1263;25356;-52
2023/08/02 04:52:44;;;;;;;5.70;2.90;;;;;;;27.18;64.60;100832.52;107010;1251;25359;-52
2023/08/02 04:55:11;;;;;;;3.30;3.00;;;;;;;27.20;64.71;100830.39;107087;1263;25366;-52
2023/08/02 04:57:37;;;;;;;3.00;2.80;;;;;;;27.21;64.65;100834.98;107140;1257;25487;-52
2023/08/02 05:00:06;;;;;;;3.80;3.40;;;;;;;27.21;64.58;100832.80;107218;1263;22515;-51
2023/08/02 05:02:36;;;;;;;3.40;3.10;;;;;;;27.22;64.61;100833.08;107242;1261;25338;-52
2023/08/02 05:05:03;;;;;;;3.30;2.70;;;;;;;27.23;64.56;100832.33;107116;1253;25343;-51
2023/08/02 05:07:34;;;;;;;3.40;2.90;;;;;;;27.23;64.54;100825.02;107240;1267;22520;-52
2023/08/02 05:10:05;;;;;;;4.70;3.00;;;;;;;27.23;64.41;100826.45;107185;1253;25465;-52
2023/08/02 05:12:33;;;;;;;3.20;2.90;;;;;;;27.23;64.53;100827.08;107197;1253;22570;-52
2023/08/02 05:15:00;;;;;;;3.00;2.80;;;;;;;27.24;64.64;100826.45;107107;1261;22514;-51
2023/08/02 05:17:28;;;;;;;3.40;3.10;;;;;;;27.25;64.94;100824.58;107212;1263;25331;-52
2023/08/02 05:19:56;;;;;;;2.90;2.70;;;;;;;27.27;64.78;100827.59;107174;1253;25490;-52
2023/08/02 05:22:23;;;;;;;3.20;2.90;;;;;;;27.26;64.94;100826.13;107075;1265;22530;-52
2023/08/02 05:24:50;;;;;;;3.80;3.10;;;;;;;27.28;65.09;100828.97;107145;1263;23750;-52
2023/08/02 05:27:18;;;;;;;3.40;2.80;;;;;;;27.31;65.10;100825.89;107094;1253;25393;-52
2023/08/02 05:29:45;;;;;;;3.30;3.00;;;;;;;27.34;64.97;100820.60;107029;1266;25328;-51
2023/08/02 05:32:12;;;;;;;3.90;3.50;;;;;;;27.37;65.05;100821.21;107109;1254;25382;-52
2023/08/02 05:34:39;;;;;;;3.30;3.00;;;;;;;27.42;65.08;100818.69;107138;1263;25411;-51
2023/08/02 05:37:06;;;;;;;3.70;2.90;;;;;;;27.53;65.24;100822.08;106931;1266;25365;-52
2023/08/02 05:39:33;;;;;;;2.70;2.50;;;;;;;27.71;65.44;100818.69;107189;1261;25287;-52
2023/08/02 05:42:00;;;;;;;2.70;2.50;;;;;;;27.96;65.07;100822.92;107089;1257;25488;-52
2023/08/02 05:44:27;;;;;;;2.70;2.50;;;;;;;28.27;64.17;100823.91;107175;1254;25366;-52
2023/08/02 05:46:54;;;;;;;3.40;2.30;;;;;;;28.63;63.04;100821.36;107223;1253;22523;-52
2023/08/02 05:49:21;;;;;;;2.30;2.20;;;;;;;28.98;61.70;100827.01;107246;1263;25448;-49
2023/08/02 05:51:48;;;;;;;2.40;2.20;;;;;;;29.27;60.44;100826.84;107268;1257;23273;-51
2023/08/02 05:54:16;;;;;;;2.50;2.40;;;;;;;29.48;59.54;100825.75;107126;1263;22534;-52
2023/08/02 05:56:43;;;;;;;2.60;2.40;;;;;;;29.66;58.96;100825.02;107104;1263;25347;-51
2023/08/02 05:59:10;;;;;;;2.60;2.40;;;;;;;29.82;58.50;100827.03;106989;1266;22546;-51
2023/08/02 06:01:37;;;;;;;2.70;2.30;;;;;;;30.00;58.17;100822.69;107100;1254;25427;-51
2023/08/02 06:04:04;;;;;;;2.30;2.20;;;;;;;30.20;57.62;100819.11;107001;1266;25356;-51
2023/08/02 06:06:31;;;;;;;2.60;2.40;;;;;;;30.41;56.99;100820.86;107030;1261;25331;-51
2023/08/02 06:08:58;;;;;;;2.80;2.50;;;;;;;30.60;56.34;100823.75;106932;1266;25331;-52
2023/08/02 06:11:25;;;;;;;2.50;2.30;;;;;;;30.73;55.73;100828.98;107069;1263;25415;-52
2023/08/02 06:13:52;;;;;;;2.70;2.50;;;;;;;30.82;55.48;100827.55;107004;1266;24341;-51
2023/08/02 06:16:19;;;;;;;2.60;2.40;;;;;;;30.85;55.21;100828.30;107117;1263;25418;-51
2023/08/02 06:18:46;;;;;;;2.30;2.10;;;;;;;30.85;55.15;100835.95;107039;1266;25331;-52
2023/08/02 06:21:13;;;;;;;2.80;2.60;;;;;;;30.84;55.20;100835.22;107144;1253;24391;-51
2023/08/02 06:23:40;;;;;;;2.60;2.40;;;;;;;30.81;55.24;100841.05;107214;1251;23299;-51
2023/08/02 06:26:07;;;;;;;2.70;2.50;;;;;;;30.79;55.19;100841.88;106997;1266;25359;-53
2023/08/02 06:28:34;;;;;;;2.40;2.20;;;;;;;30.76;55.19;100841.46;107173;1257;25333;-52
2023/08/02 06:31:01;;;;;;;2.40;2.20;;;;;;;30.73;55.12;100840.00;107217;1263;25330;-51
2023/08/02 06:33:28;;;;;;;2.60;2.40;;;;;;;30.69;55.20;100837.55;107089;1250;25337;-52
2023/08/02 06:35:55;;;;;;;2.00;1.90;;;;;;;30.65;55.23;100836.90;107173;1257;25334;-52
2023/08/02 06:38:21;;;;;;;2.80;2.60;;;;;;;30.60;55.25;100832.17;107123;1257;25344;-51
2023/08/02 06:40:49;;;;;;;2.50;2.30;;;;;;;30.57;55.38;100830.78;107168;1263;25340;-52
2023/08/02 06:43:16;;;;;;;2.20;2.10;;;;;;;30.53;55.45;100830.56;107118;1257;25331;-51
2023/08/02 06:45:46;;;;;;;2.40;2.20;;;;;;;30.50;55.26;100838.54;107194;1260;25332;-51
2023/08/02 06:48:17;;;;;;;2.20;2.00;;;;;;;30.47;55.29;100841.03;107179;1258;23197;-51
2023/08/02 06:50:44;;;;;;;3.30;2.20;;;;;;;30.44;55.34;100846.35;107139;1253;25453;-52
2023/08/02 06:53:13;;;;;;;2.70;2.50;;;;;;;30.40;55.36;100847.16;107121;1263;22531;-51
2023/08/02 06:55:40;;;;;;;2.40;2.20;;;;;;;30.36;55.29;100848.99;107251;1263;25356;-51
2023/08/02 06:58:07;;;;;;;2.20;2.00;;;;;;;30.33;55.41;100848.26;107163;1263;25494;-50
2023/08/02 07:00:34;;;;;;;2.60;2.20;;;;;;;30.30;55.56;100851.73;107119;1257;25525;-52
2023/08/02 07:03:05;;;;;;;2.80;2.10;;;;;;;30.29;55.66;100852.59;107029;1266;25431;-51
2023/08/02 07:05:34;;;;;;;3.70;2.20;;;;;;;30.31;55.70;100849.36;106873;1269;25319;-52
2023/08/02 07:08:02;;;;;;;4.00;2.30;;;;;;;30.38;55.64;100844.17;107122;1254;25337;-50
2023/08/02 07:10:29;;;;;;;2.20;2.00;;;;;;;30.49;55.29;100845.34;107123;1269;25478;-52
2023/08/02 07:12:56;;;;;;;2.40;2.20;;;;;;;30.62;55.04;100849.36;107170;1264;25350;-51
2023/08/02 07:15:23;;;;;;;2.10;2.00;;;;;;;30.77;54.66;100853.52;107084;1261;25359;-52
2023/08/02 07:17:50;;;;;;;1.90;1.80;;;;;;;30.94;54.47;100853.86;107027;1266;25491;-52
2023/08/02 07:20:21;;;;;;;2.50;2.30;;;;;;;31.15;54.17;100855.72;107074;1257;25321;-52
2023/08/02 07:22:48;;;;;;;2.10;2.00;;;;;;;31.39;53.46;100854.05;106874;1254;25487;-51
2023/08/02 07:25:15;;;;;;;3.20;2.10;;;;;;;31.60;52.69;100850.63;107168;1254;25490;-51
2023/08/02 07:27:42;;;;;;;2.10;2.00;;;;;;;31.79;52.05;100851.05;107326;1263;25321;-52
2023/08/02 07:30:09;;;;;;;2.30;2.10;;;;;;;31.93;51.63;100853.79;107162;1251;25462;-51
2023/08/02 07:32:36;;;;;;;2.50;2.10;;;;;;;32.01;51.14;100853.98;106895;1266;25337;-51
2023/08/02 07:35:04;;;;;;;2.60;2.10;;;;;;;32.02;51.03;100853.92;107199;1263;25327;-52
2023/08/02 07:37:31;;;;;;;2.10;2.00;;;;;;;31.97;50.81;100853.50;107212;1254;25337;-52
2023/08/02 07:39:58;;;;;;;2.80;2.00;;;;;;;31.91;51.05;100852.77;106893;1266;25347;-52
2023/08/02 07:42:25;;;;;;;2.10;1.90;;;;;;;31.84;51.09;100851.89;106894;1256;25448;-52
2023/08/02 07:45:01;;;;;;;2.00;1.90;;;;;;;31.78;51.14;100845.42;107260;1254;25359;-52
2023/08/02 07:47:29;;;;;;;2.30;1.90;;;;;;;31.71;51.23;100841.02;107159;1253;25672;-51
2023/08/02 07:49:56;;;;;;;1.80;1.70;;;;;;;31.65;51.37;100838.08;107121;1263;25341;-51
2023/08/02 07:52:23;;;;;;;2.00;1.90;;;;;;;31.58;51.38;100834.52;107043;1256;25339;-52
2023/08/02 07:54:53;;;;;;;2.60;2.30;;;;;;;31.51;51.38;100829.29;107194;1263;25341;-52
2023/08/02 07:57:26;;;;;;;2.10;1.90;;;;;;;31.42;51.70;100826.66;107187;1267;22536;-52
2023/08/02 07:59:53;;;;;;;2.20;2.00;;;;;;;31.34;51.84;100826.03;107174;1266;25311;-51
2023/08/02 08:02:20;;;;;;;2.00;1.80;;;;;;;31.30;52.26;100825.25;107088;1267;25365;-51
2023/08/02 08:04:47;;;;;;;2.10;1.80;;;;;;;31.26;52.56;100823.84;107202;1266;25341;-51
2023/08/02 08:07:14;;;;;;;2.30;2.10;;;;;;;31.26;52.72;100820.85;107003;1257;23451;-52
2023/08/02 08:09:41;;;;;;;4.90;2.00;;;;;;;31.26;52.83;100818.86;107231;1264;25342;-52
2023/08/02 08:12:09;;;;;;;2.10;2.00;;;;;;;31.29;52.78;100822.80;107199;1260;25341;-52
2023/08/02 08:14:36;;;;;;;2.00;1.90;;;;;;;31.32;52.45;100818.70;107271;1260;25342;-52
2023/08/02 08:17:03;;;;;;;2.00;1.80;;;;;;;31.35;52.42;100817.74;107076;1260;25361;-52
2023/08/02 08:19:33;;;;;;;2.20;1.90;;;;;;;31.36;52.49;100819.36;107302;1253;25394;-52
2023/08/02 08:22:00;;;;;;;4.00;1.80;;;;;;;31.39;52.39;100817.98;107275;1253;25341;-52
2023/08/02 08:24:27;;;;;;;2.00;1.90;;;;;;;31.41;52.44;100815.95;107165;1267;25810;-52
2023/08/02 08:26:55;;;;;;;2.00;1.90;;;;;;;31.43;52.28;100814.15;107184;1257;25365;-52
2023/08/02 08:29:22;;;;;;;2.10;2.00;;;;;;;31.45;52.23;100815.94;106897;1259;24377;-52
2023/08/02 08:31:49;;;;;;;2.30;2.10;;;;;;;31.46;52.31;100815.77;107123;1260;25328;-51
2023/08/02 08:34:17;;;;;;;2.10;1.90;;;;;;;31.48;52.33;100812.52;107064;1251;25477;-51
2023/08/02 08:36:44;;;;;;;2.00;1.90;;;;;;;31.51;52.29;100816.00;106959;1263;25337;-51
2023/08/02 08:39:11;;;;;;;1.80;1.70;;;;;;;31.52;52.08;100820.48;107000;1254;25480;-51
2023/08/02 08:41:37;;;;;;;1.90;1.80;;;;;;;31.54;52.04;100819.98;107052;1267;25359;-51
2023/08/02 08:44:04;;;;;;;3.20;2.20;;;;;;;31.52;51.82;100817.96;106903;1254;25395;-51
2023/08/02 08:46:32;;;;;;;2.20;2.10;;;;;;;31.50;51.66;100821.08;107057;1254;25487;-50
2023/08/02 08:49:00;;;;;;;2.30;2.00;;;;;;;31.47;51.57;100823.98;107151;1263;22529;-51
2023/08/02 08:51:27;;;;;;;2.40;2.20;;;;;;;31.42;51.64;100827.55;107103;1256;25328;-51
2023/08/02 08:53:54;;;;;;;4.30;2.20;;;;;;;31.38;51.88;100829.45;106909;1261;25392;-51
2023/08/02 08:56:23;;;;;;;2.30;2.10;;;;;;;31.33;51.82;100828.42;107048;1266;24378;-51
2023/08/02 08:58:51;;;;;;;2.00;1.90;;;;;;;31.29;51.87;100819.38;107188;1253;25487;-51
2023/08/02 09:01:19;;;;;;;2.20;2.10;;;;;;;31.25;51.65;100822.52;106923;1263;22526;-51
2023/08/02 09:03:46;;;;;;;2.50;2.10;;;;;;;31.20;51.91;100819.56;107190;1268;22524;-51
2023/08/02 09:06:15;;;;;;;2.30;2.20;;;;;;;31.14;52.05;100815.30;107134;1263;25356;-52
2023/08/02 09:08:47;;;;;;;4.60;2.10;;;;;;;31.09;52.03;100818.23;107103;1253;22586;-51
2023/08/02 09:11:17;;;;;;;2.40;2.20;;;;;;;31.05;52.09;100814.34;106978;1260;25347;-51
2023/08/02 09:13:44;;;;;;;2.30;2.10;;;;;;;30.99;52.11;100814.21;107024;1264;22961;-51
2023/08/02 09:16:15;;;;;;;2.80;2.40;;;;;;;30.93;52.33;100808.66;107012;1266;25467;-51
2023/08/02 09:18:47;;;;;;;2.80;2.60;;;;;;;30.88;52.51;100808.96;106972;1266;22535;-51
2023/08/02 09:21:15;;;;;;;2.50;2.30;;;;;;;30.86;52.67;100810.80;107288;1263;25478;-51
2023/08/02 09:23:48;;;;;;;2.80;2.20;;;;;;;30.85;52.87;100815.23;107135;1262;24156;-52
2023/08/02 09:26:17;;;;;;;2.20;2.10;;;;;;;30.85;52.94;100820.97;107117;1260;24455;-52
2023/08/02 09:29:04;;;;;;;2.90;2.30;;;;;;;30.85;53.00;100819.34;107189;1267;22700;-52
2023/08/02 09:31:34;;;;;;;2.60;2.40;;;;;;;30.88;53.22;100819.95;107205;1256;22522;-51
2023/08/02 09:34:02;;;;;;;2.80;2.30;;;;;;;30.92;53.12;100821.11;107108;1258;22519;-51
2023/08/02 09:36:33;;;;;;;3.20;2.20;;;;;;;30.95;53.08;100823.78;107156;1263;25338;-52
2023/08/02 09:39:10;;;;;;;2.40;2.20;;;;;;;30.99;52.91;100827.92;107233;1257;25226;-51
2023/08/02 09:41:37;;;;;;;5.50;2.60;;;;;;;31.02;52.48;100831.02;107041;1265;25340;-52
2023/08/02 09:44:08;;;;;;;2.60;2.40;;;;;;;31.04;52.54;100830.09;106810;1270;25491;-52
2023/08/02 09:46:35;;;;;;;2.30;2.10;;;;;;;31.04;52.52;100828.27;106942;1267;25349;-52
2023/08/02 09:49:16;;;;;;;2.30;2.10;;;;;;;31.05;52.49;100823.33;107126;1255;25353;-52
2023/08/02 09:51:44;;;;;;;3.50;2.30;;;;;;;31.07;52.55;100823.48;107178;1266;22533;-52
2023/08/02 09:54:13;;;;;;;2.50;2.30;;;;;;;31.09;52.47;100823.88;107229;1263;23863;-51
2023/08/02 09:56:41;;;;;;;2.40;2.20;;;;;;;31.10;52.25;100822.71;107268;1263;22618;-52
2023/08/02 09:59:08;;;;;;;3.00;2.50;;;;;;;31.10;52.17;100822.94;107153;1266;25418;-51
2023/08/02 10:01:35;;;;;;;2.40;2.30;;;;;;;31.08;52.17;100817.20;106878;1266;25321;-51
2023/08/02 10:04:06;;;;;;;2.90;2.40;;;;;;;31.08;52.16;100817.77;107128;1256;25481;-52
2023/08/02 10:06:42;;;;;;;4.90;2.30;;;;;;;31.09;52.19;100817.44;107096;1257;25281;-52
2023/08/02 10:09:11;;;;;;;2.40;2.20;;;;;;;31.12;51.97;100820.83;106858;1266;25365;-51
2023/08/02 10:11:41;;;;;;;2.20;2.00;;;;;;;31.16;51.80;100822.80;106990;1263;22650;-51
2023/08/02 10:14:09;;;;;;;2.40;2.20;;;;;;;31.18;51.82;100819.15;107013;1260;25369;-52
2023/08/02 10:16:37;;;;;;;2.60;2.40;;;;;;;31.20;51.64;100819.83;106912;1266;25379;-51
2023/08/02 10:19:04;;;;;;;2.50;2.30;;;;;;;31.20;51.44;100821.98;107065;1266;23309;-52
2023/08/02 10:21:33;;;;;;;2.50;2.30;;;;;;;31.20;51.50;100819.87;106937;1257;22539;-52
2023/08/02 10:24:00;;;;;;;2.50;2.10;;;;;;;31.18;51.55;100815.21;107183;1268;25459;-52
2023/08/02 10:26:29;;;;;;;2.20;2.10;;;;;;;31.18;51.63;100812.60;107141;1266;25369;-52
2023/08/02 10:28:57;;;;;;;2.70;2.40;;;;;;;31.19;51.67;100810.69;107113;1258;25356;-51
2023/08/02 10:31:24;;;;;;;2.60;2.40;;;;;;;31.19;51.52;100806.52;107059;1265;22801;-52
2023/08/02 10:33:51;;;;;;;2.50;2.30;;;;;;;31.20;51.53;100806.26;107068;1263;25328;-52
2023/08/02 10:36:18;;;;;;;2.60;2.40;;;;;;;31.22;51.77;100800.71;106964;1266;25356;-51
2023/08/02 10:38:47;;;;;;;2.40;2.20;;;;;;;31.24;51.74;100803.08;106989;1268;25359;-51
2023/08/02 10:41:19;;;;;;;3.90;2.50;;;;;;;31.27;51.69;100804.92;107243;1253;25290;-53
2023/08/02 10:43:52;;;;;;;3.00;2.50;;;;;;;31.30;51.59;100803.69;107127;1256;25398;-51
2023/08/02 10:46:24;;;;;;;2.40;2.20;;;;;;;31.33;51.13;100802.10;107105;1264;25424;-52
2023/08/02 10:48:52;;;;;;;2.50;2.30;;;;;;;31.31;51.13;100801.77;107163;1262;25449;-51
2023/08/02 10:51:37;;;;;;;2.70;2.50;;;;;;;31.27;51.07;100803.81;107142;1257;25408;-52
2023/08/02 10:54:21;;;;;;;3.70;2.40;;;;;;;31.21;51.18;100802.52;107188;1267;24390;-52
2023/08/02 10:56:51;;;;;;;3.00;2.60;;;;;;;31.15;51.42;100802.87;107109;1254;22566;-51
2023/08/02 10:59:24;;;;;;;2.60;2.40;;;;;;;31.09;51.47;100802.41;107112;1263;25334;-51
2023/08/02 11:02:08;;;;;;;2.90;2.70;;;;;;;31.03;51.70;100795.55;107210;1264;25491;-52
2023/08/02 11:04:37;;;;;;;2.60;2.30;;;;;;;30.98;51.91;100789.52;107201;1253;22521;-52
2023/08/02 11:07:24;;;;;;;2.60;2.40;;;;;;;30.93;52.05;100784.49;106998;1259;22684;-52
2023/08/02 11:09:54;;;;;;;2.80;2.60;;;;;;;30.89;52.24;100783.51;107071;1266;25368;-51
2023/08/02 11:12:21;;;;;;;3.00;2.60;;;;;;;30.86;52.35;100781.08;107137;1262;25403;-52
2023/08/02 11:14:50;;;;;;;2.60;2.20;;;;;;;30.87;52.52;100787.30;107141;1260;25425;-51
2023/08/02 11:17:22;;;;;;;2.50;2.30;;;;;;;30.89;52.43;100797.25;107006;1267;25334;-52
2023/08/02 11:19:53;;;;;;;3.10;2.60;;;;;;;30.93;52.42;100800.62;106812;1260;22537;-52
2023/08/02 11:22:22;;;;;;;2.90;2.60;;;;;;;30.97;52.30;100798.91;106889;1263;25528;-52